Bunker Hill, Ohio
Current Conditions -  °F | °C
As of 11:36 AM on Friday 19 Dec 2014 (Local Time) from KBJJ Reporting Station
Overcast Overcast  
Wind Chill: 22°   Ceiling: 1600
Heat Index: 29°   Visibility: 10mi
Dew Point: 26°   Wind: 7mph
Humidity: 89%   Direction: 310°NW
Pressure: 30.24"   Gusts: NA
Location:  40.5444°N, 81.851°W
Report Text: KBJJ 191636Z AUTO 31006KT 10SM SCT010 BKN016 OVC024 M02/M03 A3024 RMK AO2 T10171033 TSNO
Loading
Personal Weather Stations






























Interactive Weather Map New forecast layout! Learn more

10-Day Weather Forecast

Advertisements
Track Severe Weather on mobile